Flight Track Log - Related Links

Times and Time Zones

All times are in EDT time to prevent confusion due to time zone crossing. See the UAL4257 flight status page for this flight to view local times or setup timezone preferences in your user account.

Time Position Orientation Groundspeed Altitude Reporting Facility
EDT Latitude Longitude Course Direction KTS MPH feet Rate Location/Type
Sat 12:08:00 PM 26.3412 -99.5002 44° Northeast  Level Estimated
Sat 12:08:07 PM 25.9022 -99.7692 44° Northeast 276 318 13,900  Level Houston Center
Sat 12:09:00 PM 26.4138 -99.4213 44° Northeast  Level Estimated
Sat 12:09:09 PM 25.9636 -99.7142 39° Northeast 279 321 15,900  Level Houston Center
Sat 12:10:00 PM 26.4863 -99.3424 44° Northeast  Level Estimated
Sat 12:10:10 PM 26.0244 -99.6553 41° Northeast 284 327 17,700  Level Houston Center
Sat 12:11:00 PM 26.5588 -99.2633 44° Northeast  Level Estimated
Sat 12:11:12 PM 26.0972 -99.5758 44° Northeast 295 339 19,800  Level Houston Center
Sat 12:12:00 PM 26.6313 -99.1841 44° Northeast  Level Estimated
Sat 12:12:14 PM 26.1650 -99.5106 41° Northeast 309 356 21,600  Level Houston Center
Sat 12:13:00 PM 26.7036 -99.1049 44° Northeast  Level Estimated
Sat 12:13:16 PM 26.2358 -99.4442 40° Northeast 322 371 23,500  Level Houston Center
Sat 12:14:18 PM 26.3094 -99.3747 40° Northeast 334 384 24,900 1,742 Climbing Houston Center
Sat 12:15:20 PM 26.3828 -99.3044 41° Northeast 343 395 27,100 1,597 Climbing Houston Center
Sat 12:16:22 PM 26.4575 -99.2367 39° Northeast 346 398 28,200 1,065 Climbing Houston Center
Sat 12:17:24 PM 26.5358 -99.1611 41° Northeast 364 419 29,300 1,122 Climbing Houston Center
Sat 12:18:25 PM 26.6344 -99.0656 41° Northeast 388 447 30,500 1,122 Climbing Houston Center
Sat 12:19:27 PM 26.7200 -98.9825 41° Northeast 403 464 31,600 1,065 Climbing Houston Center
Sat 12:20:29 PM 26.8086 -98.8978 40° Northeast 417 480 32,700 677 Climbing Houston Center
Sat 12:21:31 PM 26.8994 -98.8100 41° Northeast 430 495 33,000 145 Climbing Houston Center
Sat 12:22:33 PM 26.9983 -98.7144 41° Northeast 463 533 33,000  Level Houston Center
Sat 12:23:35 PM 27.1192 -98.5958 41° Northeast 482 555 33,000  Level Houston Center
Sat 12:24:37 PM 27.2208 -98.4989 40° Northeast 483 556 33,000  Level Houston Center
Sat 12:25:39 PM 27.3197 -98.4008 41° Northeast 480 552 33,000  Level Houston Center
Sat 12:26:40 PM 27.4183 -98.3044 41° Northeast 476 548 33,000  Level Houston Center
Sat 12:27:42 PM 27.5181 -98.2078 41° Northeast 475 547 33,000  Level Houston Center
Sat 12:28:44 PM 27.6175 -98.1108 41° Northeast 474 545 33,000  Level Houston Center
Sat 12:29:46 PM 27.7353 -97.9933 41° Northeast 474 545 33,000  Level Houston Center
Sat 12:30:48 PM 27.8336 -97.8961 41° Northeast 472 543 33,000  Level Houston Center
Sat 12:31:50 PM 27.9328 -97.7994 41° Northeast 472 543 33,000  Level Houston Center
Sat 12:32:51 PM 28.0256 -97.7086 41° Northeast 470 541 33,000  Level Houston Center
Sat 12:33:53 PM 28.1436 -97.5919 41° Northeast 470 541 33,000  Level Houston Center
Sat 12:34:55 PM 28.2397 -97.4925 42° Northeast 468 539 33,000  Level Houston Center
Sat 12:35:57 PM 28.3378 -97.3964 41° Northeast 469 540 33,000  Level Houston Center
Sat 12:36:59 PM 28.4356 -97.3000 41° Northeast 466 536 33,000  Level Houston Center
Sat 12:38:00 PM 28.5322 -97.2014 42° Northeast 467 537 33,000 -293 Level Houston Center
Sat 12:39:02 PM 28.6297 -97.1036 41° Northeast 468 539 32,400 -1,355 Descending Houston Center
Sat 12:40:04 PM 28.7456 -96.9867 42° Northeast 466 536 30,200 -2,177 Descending Houston Center
Sat 12:41:06 PM 28.8419 -96.8900 41° Northeast 464 534 27,900 -2,613 Descending Houston Center
Sat 12:42:08 PM 28.9381 -96.7903 42° Northeast 468 539 24,800 -3,024 Descending Houston Center
Sat 12:43:09 PM 29.0297 -96.6972 42° Northeast 449 517 21,700 -2,927 Descending Houston Center
Sat 12:44:11 PM 29.1172 -96.6083 42° Northeast 429 494 18,800 -2,565 Descending Houston Center
Sat 12:45:13 PM 29.2011 -96.5219 42° Northeast 412 474 16,400 -2,552 Descending Houston Center
Sat 12:45:38 PM 29.2506 -96.4725 41° Northeast 399 459 15,100 -2,710 Descending Houston Center
Sat 12:46:15 PM 29.2992 -96.4222 42° Northeast 400 460 13,600 -2,351 Descending Houston Center
Sat 12:46:52 PM 29.3508 -96.3681 42° Northeast 395 455 12,200 -2,459 Descending Houston Center
Sat 12:47:16 PM 29.3792 -96.3383 42° Northeast 393 452 11,100 -2,100 Descending Houston Center
Sat 12:47:52 PM 29.4300 -96.2875 41° Northeast 385 443 10,100 -1,065 Descending Houston Center
Sat 12:48:18 PM 29.4575 -96.2586 42° Northeast 381 438 10,000 -107 Descending Houston Center
Sat 12:48:48 PM 29.4994 -96.2150 42° Northeast 365 420 10,000  Level Houston Center
Sat 12:49:20 PM 29.5300 -96.1828 43° Northeast 358 412 10,000 -90 Level Houston Center
Sat 12:49:55 PM 29.5669 -96.1211 55° Northeast 319 367 9,900 -484 Descending Houston Center
Sat 12:50:22 PM 29.5797 -96.0978 58° Northeast 330 380 9,500 -1,475 Descending Houston Center
Sat 12:50:56 PM 29.6100 -96.0369 60° Northeast 292 336 8,400 -1,770 Descending Houston Center
Sat 12:51:23 PM 29.6283 -96.0017 59° Northeast 299 344 7,700 -1,279 Descending Houston Center
Sat 12:51:57 PM 29.6494 -95.9603 60° Northeast 280 322 7,100 -677 Descending Houston Center
Sat 12:52:25 PM 29.6675 -95.9264 58° Northeast 282 325 7,000 -98 Descending Houston Center
Sat 12:52:58 PM 29.7031 -95.9014 31° Northeast 267 307 7,000  Level Houston Center
Sat 12:53:27 PM 29.7353 -95.8844 25° Northeast 281 323 7,000  Level Houston Center
Sat 12:53:59 PM 29.7792 -95.8589 27° Northeast 292 336 7,000  Level Houston Center
Sat 12:54:29 PM 29.8039 -95.8369 38° Northeast 294 338 7,000  Level Houston Center
Sat 12:55:01 PM 29.8436 -95.8058 34° Northeast 284 327 7,000 -677 Level Houston Center
Sat 12:55:31 PM 29.8694 -95.7833 37° Northeast 289 333 6,300 -1,770 Descending Houston Center
Sat 12:56:02 PM 29.9078 -95.7478 39° Northeast 285 328 5,200 -1,869 Descending Houston Center
Sat 12:56:32 PM 29.9292 -95.7242 44° Northeast 287 330 4,400 -1,770 Descending Houston Center
Sat 12:57:03 PM 29.9522 -95.6797 59° Northeast 272 313 3,400 -1,258 Descending Houston Center
Sat 12:57:34 PM 29.9650 -95.6475 65° Northeast 277 319 3,100 -358 Descending Houston Center
Sat 12:58:10 PM 29.9861 -95.5892 67° East 273 314 3,000 -97 Descending Houston Center
Sat 12:58:36 PM 29.9936 -95.5669 69° East 273 314 3,000 -393 Level Houston Center
Sat 12:59:11 PM 29.9931 -95.5039 91° East 258 297 2,600 -968 Descending Houston Center
Sat 12:59:38 PM 29.9936 -95.4667 89° East 264 304 2,000 -1,082 Descending Houston Center
Sat 01:00:12 PM 29.9928 -95.4314 92° East 184 212 1,500 -968 Descending Houston Center
Sat 01:00:40 PM 29.9936 -95.4092 88° East 213 245 1,000 -873 Descending Houston Center
Sat 01:01:07 PM 29.9931 -95.3881 92° East 133 153 700 -590 Descending Houston Center
Sat 01:01:41 PM 29.9925 -95.3617 91° East 169 194 400 -529 Descending Houston Center
Sat 01:03:00 PM 29.9833 -95.3333 49° Northeast  Level FlightAware Approximate
Sat 01:10:00 PM 29.9844 -95.3414 49° Northeast  Level Estimated

Login

Don't have an account? Register now (free) for customized features, flight alerts, and more!